Weather  for  Charlottetown, P. E. I.  -  Canada    Canada

-3 °C (27 °F)

Current METAR for Charlottetown, P. E. I. is :

CYYG 210200Z 23006KT 15SM SKC M03/M08 A2989 RMK SLP126


This is a report for Charlottetown, P. E. I. - Canada.
The report was made 58 minutes ago, at 02:00 UTC .
The wind was blowing at a speed of 3.1 meters per second (6.9 miles per hour) from southwest (230°).
The temperature was -3 °C (27 °F), with a dew-point at -8 °C (18 °F).
The temperature felt like -7 °C (20 °F).
The atmospheric pressure was 1012 hPa (29.89 inHg).
The relative humidity was 68.3%.
The sky was clear.
The overall visibility was 24.1 kilometers (15.0 miles).


Country :   A   B   C   D   E   F   G   H   I   J   K   L   M   N   O   P   Q   R   S   T   U   V   W   Y   Z


Site Info  |  Disclaimer  |  Credits  |  Privacy
Contact us  |  Add to favorites
© 2013-2018 METARs - All rights reserved